createdAt,value
2019-02-16T00:01:12.292Z,68.33
2019-02-16T00:03:46.149Z,69.33
2019-02-16T00:06:19.695Z,69.32
2019-02-16T00:08:53.638Z,68.54
2019-02-16T00:11:27.501Z,68.53
2019-02-16T00:14:01.489Z,68.08
2019-02-16T00:16:35.359Z,67.82
2019-02-16T00:19:08.967Z,67.92
2019-02-16T00:21:42.837Z,67.39
2019-02-16T00:24:16.275Z,67.86
2019-02-16T00:26:50.064Z,69.08
2019-02-16T00:29:23.747Z,68.69
2019-02-16T00:31:57.585Z,68.66
2019-02-16T00:34:31.144Z,66.91
2019-02-16T00:37:04.781Z,67.75
2019-02-16T00:39:38.584Z,66.86
2019-02-16T00:42:12.298Z,66.87
2019-02-16T00:44:46.261Z,66.67
2019-02-16T00:47:19.962Z,66.42
2019-02-16T00:49:53.728Z,65.61
2019-02-16T00:52:27.269Z,65.85
2019-02-16T00:55:46.489Z,65.40
2019-02-16T00:57:43.536Z,65.58
2019-02-16T01:00:17.118Z,64.94
2019-02-16T01:02:50.601Z,64.78
2019-02-16T01:05:24.285Z,65.40
2019-02-16T01:07:59.241Z,64.98
2019-02-16T01:10:34.784Z,65.67
2019-02-16T01:13:08.535Z,64.19
2019-02-16T01:15:43.322Z,64.86
2019-02-16T01:18:17.138Z,63.64
2019-02-16T01:20:50.935Z,62.03
2019-02-16T01:23:25.086Z,59.38
2019-02-16T01:25:58.816Z,59.38
2019-02-16T01:28:35.239Z,60.06
2019-02-16T01:31:10.443Z,59.92
2019-02-16T01:33:45.596Z,58.68
2019-02-16T01:36:20.529Z,57.56
2019-02-16T01:38:54.187Z,58.47
2019-02-16T01:41:27.954Z,60.35
2019-02-16T01:44:01.838Z,59.48
2019-02-16T01:46:35.433Z,59.39
2019-02-16T01:49:09.162Z,59.14
2019-02-16T01:51:42.944Z,59.93
2019-02-16T01:54:16.591Z,61.40
2019-02-16T01:56:50.483Z,61.19
2019-02-16T01:59:24.141Z,60.68
2019-02-16T02:01:57.998Z,59.87
2019-02-16T02:04:31.946Z,60.67
2019-02-16T02:07:06.209Z,59.25
2019-02-16T02:09:40.614Z,56.25
2019-02-16T02:12:15.656Z,56.60
2019-02-16T02:15:05.022Z,56.41
2019-02-16T02:17:39.232Z,54.71
2019-02-16T02:20:13.730Z,52.44
2019-02-16T02:22:48.044Z,51.73
2019-02-16T02:25:23.929Z,51.23
2019-02-16T02:27:58.025Z,52.75
2019-02-16T02:30:33.299Z,52.73
2019-02-16T02:33:07.395Z,52.83
2019-02-16T02:35:41.449Z,53.70
2019-02-16T02:38:16.477Z,51.98
2019-02-16T02:40:50.491Z,50.41
2019-02-16T02:43:24.788Z,49.22
2019-02-16T02:45:59.176Z,47.45
2019-02-16T02:48:33.100Z,48.78
2019-02-16T02:51:07.594Z,48.42
2019-02-16T02:53:41.773Z,47.76
2019-02-16T02:56:15.764Z,48.05
2019-02-16T02:58:51.267Z,47.17
2019-02-16T03:01:26.893Z,46.81
2019-02-16T03:04:01.080Z,46.13
2019-02-16T03:06:35.199Z,45.83
2019-02-16T03:09:09.549Z,47.91
2019-02-16T03:11:43.600Z,47.44
2019-02-16T03:14:23.987Z,46.96
2019-02-16T03:16:55.866Z,46.89
2019-02-16T03:19:30.374Z,46.53
2019-02-16T03:22:04.899Z,46.31
2019-02-16T03:24:38.981Z,47.23
2019-02-16T03:27:30.933Z,46.65
2019-02-16T03:30:29.207Z,47.28
2019-02-16T03:33:08.959Z,47.11
2019-02-16T03:36:08.613Z,46.29
2019-02-16T03:38:50.651Z,46.30
2019-02-16T03:41:25.107Z,46.78
2019-02-16T03:43:59.556Z,46.18
2019-02-16T03:46:33.963Z,47.24
2019-02-16T03:49:08.359Z,45.63
2019-02-16T03:51:45.895Z,44.90
2019-02-16T03:54:22.507Z,44.39
2019-02-16T03:56:57.272Z,46.12
2019-02-16T03:59:31.494Z,45.50
2019-02-16T04:02:05.795Z,46.69
2019-02-16T04:04:40.133Z,46.57
2019-02-16T04:07:14.532Z,45.88
2019-02-16T04:09:48.855Z,45.38
2019-02-16T04:12:23.125Z,45.77
2019-02-16T04:14:57.407Z,45.34
2019-02-16T04:17:31.728Z,45.75
2019-02-16T04:20:06.912Z,43.32
2019-02-16T04:22:43.397Z,44.76
2019-02-16T04:25:19.251Z,44.76
2019-02-16T04:27:53.644Z,43.54
2019-02-16T04:30:29.708Z,42.86
2019-02-16T04:33:04.414Z,43.37
2019-02-16T04:35:38.773Z,44.36
2019-02-16T04:38:13.717Z,41.74
2019-02-16T04:40:48.558Z,44.18
2019-02-16T04:43:22.445Z,42.26
2019-02-16T04:45:57.059Z,43.88
2019-02-16T04:48:31.937Z,44.08
2019-02-16T04:51:06.026Z,42.97
2019-02-16T04:53:40.918Z,44.38
2019-02-16T04:56:15.400Z,43.59
2019-02-16T04:58:51.386Z,44.30
2019-02-16T05:01:25.879Z,44.51
2019-02-16T05:04:00.220Z,45.31
2019-02-16T05:06:34.686Z,45.93
2019-02-16T05:09:09.158Z,45.09
2019-02-16T05:11:43.795Z,46.18
2019-02-16T05:14:18.254Z,46.09
2019-02-16T05:16:52.717Z,44.08
2019-02-16T05:19:28.667Z,44.66
2019-02-16T05:22:04.908Z,45.19
2019-02-16T05:24:39.375Z,45.65
2019-02-16T05:27:15.386Z,45.75
2019-02-16T05:29:49.753Z,45.74
2019-02-16T05:32:25.962Z,47.01
2019-02-16T05:35:02.520Z,47.10
2019-02-16T05:37:36.620Z,48.37
2019-02-16T05:40:12.078Z,49.98
2019-02-16T05:42:46.401Z,49.39
2019-02-16T05:45:20.774Z,50.09
2019-02-16T05:48:00.166Z,51.13
2019-02-16T05:50:34.548Z,50.98
2019-02-16T05:53:11.736Z,51.71
2019-02-16T05:55:46.443Z,51.91
2019-02-16T05:58:21.257Z,52.11
2019-02-16T06:00:55.589Z,51.62
2019-02-16T06:03:30.438Z,53.56
2019-02-16T06:06:04.917Z,51.99
2019-02-16T06:08:39.336Z,52.49
2019-02-16T06:11:17.437Z,53.71
2019-02-16T06:13:53.596Z,49.58
2019-02-16T06:16:29.168Z,52.64
2019-02-16T06:19:05.045Z,52.58
2019-02-16T06:21:40.367Z,52.23
2019-02-16T06:24:16.941Z,50.94
2019-02-16T06:26:51.872Z,51.30
2019-02-16T06:29:26.245Z,51.22
2019-02-16T06:32:00.812Z,51.91
2019-02-16T06:34:37.540Z,51.53
2019-02-16T06:37:12.444Z,53.11
2019-02-16T06:39:47.182Z,54.00
2019-02-16T06:42:21.741Z,52.67
2019-02-16T06:44:56.667Z,49.40
2019-02-16T06:47:31.669Z,52.04
2019-02-16T06:50:06.558Z,49.82
2019-02-16T06:52:41.098Z,49.12
2019-02-16T06:55:16.325Z,50.50
2019-02-16T06:57:50.943Z,49.98
2019-02-16T07:00:27.825Z,50.38
2019-02-16T07:03:02.201Z,49.24
2019-02-16T07:05:36.504Z,49.54
2019-02-16T07:08:11.304Z,48.59
2019-02-16T07:10:45.702Z,49.39
2019-02-16T07:13:20.819Z,49.69
2019-02-16T07:15:54.836Z,49.70
2019-02-16T07:18:29.262Z,49.03
2019-02-16T07:21:03.561Z,49.11
2019-02-16T07:23:37.753Z,49.40
2019-02-16T07:26:13.962Z,49.12
2019-02-16T07:28:48.260Z,48.27
2019-02-16T07:31:23.894Z,50.21
2019-02-16T07:33:58.674Z,49.23
2019-02-16T07:36:33.785Z,48.33
2019-02-16T07:39:09.443Z,49.01
2019-02-16T07:41:44.213Z,48.83
2019-02-16T07:44:19.516Z,50.19
2019-02-16T07:46:53.488Z,49.94
2019-02-16T07:49:28.439Z,50.56
2019-02-16T07:52:04.897Z,49.73
2019-02-16T07:54:39.961Z,50.11
2019-02-16T07:57:14.959Z,50.82
2019-02-16T07:59:49.494Z,51.48
2019-02-16T08:02:24.432Z,51.09
2019-02-16T08:04:59.288Z,50.48
2019-02-16T08:07:33.738Z,51.00
2019-02-16T08:10:09.999Z,49.84
2019-02-16T08:12:47.579Z,50.55
2019-02-16T08:15:23.398Z,50.14
2019-02-16T08:17:59.217Z,51.68
2019-02-16T08:20:33.627Z,50.25
2019-02-16T08:23:08.088Z,49.93
2019-02-16T08:25:44.028Z,49.55
2019-02-16T08:28:20.871Z,50.93
2019-02-16T08:30:57.356Z,48.94
2019-02-16T08:33:32.337Z,48.76
2019-02-16T08:36:07.066Z,49.08
2019-02-16T08:38:43.187Z,50.01
2019-02-16T08:41:17.587Z,50.75
2019-02-16T08:43:52.804Z,50.73
2019-02-16T08:46:28.002Z,49.53
2019-02-16T08:49:03.056Z,49.73
2019-02-16T08:51:37.429Z,48.22
2019-02-16T08:54:11.544Z,48.77
2019-02-16T08:56:48.024Z,49.26
2019-02-16T08:59:26.049Z,48.55
2019-02-16T09:02:02.409Z,49.25
2019-02-16T09:04:36.638Z,48.49
2019-02-16T09:07:11.710Z,47.65
2019-02-16T09:09:46.119Z,48.20
2019-02-16T09:12:24.757Z,48.70
2019-02-16T09:15:03.220Z,47.05
2019-02-16T09:17:42.043Z,46.99
2019-02-16T09:20:17.668Z,46.72
2019-02-16T09:22:53.104Z,47.04
2019-02-16T09:25:28.942Z,48.48
2019-02-16T09:28:05.494Z,47.80
2019-02-16T09:30:42.661Z,47.83
2019-02-16T09:33:18.654Z,47.82
2019-02-16T09:35:54.570Z,48.34
2019-02-16T09:38:33.621Z,47.04
2019-02-16T09:41:09.684Z,50.71
2019-02-16T09:43:45.592Z,49.21
2019-02-16T09:46:21.588Z,48.57
2019-02-16T09:48:58.505Z,49.10
2019-02-16T09:51:36.691Z,48.81
2019-02-16T09:54:12.180Z,47.96
2019-02-16T09:56:47.300Z,49.79
2019-02-16T09:59:24.688Z,48.36
2019-02-16T10:02:02.714Z,48.61
2019-02-16T10:04:38.171Z,50.54
2019-02-16T10:07:15.970Z,49.13
2019-02-16T10:09:51.501Z,50.36
2019-02-16T10:12:27.237Z,49.82
2019-02-16T10:15:21.898Z,48.91
2019-02-16T10:17:58.139Z,49.11
2019-02-16T10:20:33.751Z,48.72
2019-02-16T10:23:09.323Z,50.64
2019-02-16T10:25:48.876Z,48.65
2019-02-16T10:28:23.726Z,49.33
2019-02-16T10:30:58.186Z,49.07
2019-02-16T10:33:33.676Z,49.43
2019-02-16T10:36:08.959Z,48.41
2019-02-16T10:38:44.427Z,49.12
2019-02-16T10:41:19.446Z,49.54
2019-02-16T10:43:54.270Z,47.53
2019-02-16T10:46:31.950Z,48.54
2019-02-16T10:49:09.866Z,48.26
2019-02-16T10:51:48.057Z,47.99
2019-02-16T10:54:28.122Z,48.50
2019-02-16T10:56:59.526Z,47.75
2019-02-16T10:59:34.066Z,48.90
2019-02-16T11:02:08.583Z,48.59
2019-02-16T11:04:47.327Z,47.94
2019-02-16T11:07:21.781Z,47.86
2019-02-16T11:10:09.304Z,48.41
2019-02-16T11:12:44.518Z,47.63
2019-02-16T11:15:19.924Z,48.29
2019-02-16T11:17:57.589Z,49.56
2019-02-16T11:20:33.150Z,47.94
2019-02-16T11:23:08.207Z,49.43
2019-02-16T11:25:46.221Z,48.37
2019-02-16T11:28:24.433Z,48.65
2019-02-16T11:31:00.050Z,49.60
2019-02-16T11:33:35.156Z,48.55
2019-02-16T11:36:11.115Z,49.12
2019-02-16T11:38:46.444Z,48.06
2019-02-16T11:41:24.023Z,48.12
2019-02-16T11:44:01.354Z,48.17
2019-02-16T11:46:36.699Z,48.01
2019-02-16T11:49:12.281Z,48.13
2019-02-16T11:51:50.770Z,48.70
2019-02-16T11:54:27.216Z,48.84
2019-02-16T11:57:03.075Z,47.28
2019-02-16T11:59:39.324Z,48.63
2019-02-16T12:02:16.399Z,48.92
2019-02-16T12:04:51.712Z,49.34
2019-02-16T12:07:29.704Z,47.00
2019-02-16T12:10:05.494Z,48.39
2019-02-16T12:12:40.766Z,47.52
2019-02-16T12:15:15.692Z,48.43
2019-02-16T12:17:53.056Z,46.97
2019-02-16T12:20:33.687Z,47.88
2019-02-16T12:23:13.261Z,47.01
2019-02-16T12:25:48.191Z,49.84
2019-02-16T12:28:29.106Z,47.78
2019-02-16T12:31:01.770Z,48.97
2019-02-16T12:33:36.905Z,47.76
2019-02-16T12:36:14.667Z,49.05
2019-02-16T12:38:49.788Z,49.05
2019-02-16T12:41:25.177Z,48.07
2019-02-16T12:44:00.800Z,48.41
2019-02-16T12:46:39.601Z,46.94
2019-02-16T12:49:15.060Z,46.82
2019-02-16T12:51:52.793Z,46.95
2019-02-16T12:54:28.440Z,46.49
2019-02-16T12:57:04.456Z,45.61
2019-02-16T12:59:43.968Z,46.27
2019-02-16T13:02:19.755Z,46.06
2019-02-16T13:04:55.571Z,45.33
2019-02-16T13:07:31.018Z,45.26
2019-02-16T13:10:13.768Z,45.44
2019-02-16T13:12:49.367Z,46.01
2019-02-16T13:15:27.204Z,45.50
2019-02-16T13:18:02.279Z,45.62
2019-02-16T13:20:40.005Z,45.52
2019-02-16T13:23:16.088Z,49.22
2019-02-16T13:25:52.387Z,46.60
2019-02-16T13:28:30.826Z,47.58
2019-02-16T13:31:08.872Z,46.25
2019-02-16T13:33:47.457Z,46.67
2019-02-16T13:36:25.779Z,46.61
2019-02-16T13:39:02.011Z,45.45
2019-02-16T13:41:44.799Z,45.55
2019-02-16T13:44:21.632Z,46.41
2019-02-16T13:46:57.560Z,46.10
2019-02-16T13:49:36.382Z,46.51
2019-02-16T13:52:12.444Z,45.98
2019-02-16T13:54:48.420Z,48.54
2019-02-16T13:57:23.991Z,46.59
2019-02-16T14:00:01.600Z,47.08
2019-02-16T14:02:36.466Z,47.24
2019-02-16T14:05:11.628Z,47.55
2019-02-16T14:07:46.879Z,46.87
2019-02-16T14:10:22.025Z,46.92
2019-02-16T14:12:56.923Z,46.96
2019-02-16T14:15:38.894Z,46.38
2019-02-16T14:18:14.382Z,46.42
2019-02-16T14:20:54.181Z,45.83
2019-02-16T14:23:29.606Z,46.33
2019-02-16T14:26:04.689Z,46.37
2019-02-16T14:28:40.278Z,46.77
2019-02-16T14:31:15.647Z,45.45
2019-02-16T14:33:50.701Z,45.23
2019-02-16T14:36:25.684Z,45.14
2019-02-16T14:39:01.924Z,44.77
2019-02-16T14:41:36.527Z,44.66
2019-02-16T14:44:11.621Z,45.08
2019-02-16T14:46:52.044Z,44.30
2019-02-16T14:49:32.931Z,44.92
2019-02-16T14:52:07.682Z,44.84
2019-02-16T14:54:45.598Z,44.45
2019-02-16T14:57:23.081Z,43.29
2019-02-16T14:59:59.093Z,44.52
2019-02-16T15:02:34.286Z,44.91
2019-02-16T15:05:10.431Z,43.91
2019-02-16T15:07:45.778Z,43.52
2019-02-16T15:10:21.285Z,43.46
2019-02-16T15:12:56.413Z,44.71
2019-02-16T15:15:32.150Z,44.85
2019-02-16T15:18:07.285Z,44.34
2019-02-16T15:20:45.895Z,44.71
2019-02-16T15:23:21.378Z,44.63
2019-02-16T15:26:01.168Z,44.06
2019-02-16T15:28:34.664Z,44.56
2019-02-16T15:31:12.816Z,46.08
2019-02-16T15:33:53.155Z,44.75
2019-02-16T15:36:24.746Z,45.11
2019-02-16T15:39:09.368Z,44.60
2019-02-16T15:41:44.793Z,45.50
2019-02-16T15:44:20.092Z,45.06
2019-02-16T15:46:55.487Z,44.78
2019-02-16T15:49:32.132Z,46.50
2019-02-16T15:52:13.852Z,45.31
2019-02-16T15:54:54.003Z,46.91
2019-02-16T15:57:31.306Z,44.99
2019-02-16T16:00:09.499Z,46.71
2019-02-16T16:02:44.478Z,47.14
2019-02-16T16:05:30.105Z,46.88
2019-02-16T16:08:07.512Z,46.80
2019-02-16T16:10:42.990Z,46.86
2019-02-16T16:13:18.540Z,47.50
2019-02-16T16:15:53.769Z,46.18
2019-02-16T16:18:29.179Z,45.65
2019-02-16T16:21:06.150Z,46.11
2019-02-16T16:23:41.612Z,46.98
2019-02-16T16:26:19.822Z,46.77
2019-02-16T16:29:00.418Z,45.95
2019-02-16T16:31:31.033Z,47.16
2019-02-16T16:34:09.183Z,47.08
2019-02-16T16:36:42.553Z,46.32
2019-02-16T16:39:17.852Z,47.35
2019-02-16T16:41:55.357Z,47.65
2019-02-16T16:44:37.049Z,48.17
2019-02-16T16:47:20.206Z,47.33
2019-02-16T16:49:53.400Z,47.39
2019-02-16T16:52:33.284Z,47.40
2019-02-16T16:55:11.222Z,47.58
2019-02-16T16:57:44.224Z,48.29
2019-02-16T17:00:21.252Z,47.12
2019-02-16T17:02:55.244Z,48.13
2019-02-16T17:05:32.140Z,48.25
2019-02-16T17:08:11.581Z,47.95
2019-02-16T17:10:46.194Z,48.01
2019-02-16T17:13:20.673Z,47.79
2019-02-16T17:15:54.943Z,48.55
2019-02-16T17:18:32.742Z,48.17
2019-02-16T17:21:07.245Z,47.72
2019-02-16T17:23:42.037Z,48.08
2019-02-16T17:26:22.266Z,47.85
2019-02-16T17:28:56.728Z,48.92
2019-02-16T17:31:31.386Z,48.27
2019-02-16T17:34:09.198Z,48.28
2019-02-16T17:36:42.965Z,48.74
2019-02-16T17:39:17.648Z,49.19
2019-02-16T17:41:52.984Z,48.02
2019-02-16T17:44:27.697Z,48.77
2019-02-16T17:47:02.147Z,49.10
2019-02-16T17:49:42.909Z,48.47
2019-02-16T17:52:15.563Z,48.52
2019-02-16T17:54:50.381Z,49.12
2019-02-16T17:57:27.231Z,48.75
2019-02-16T18:00:01.846Z,49.02
2019-02-16T18:02:36.738Z,48.74
2019-02-16T18:05:13.813Z,48.92
2019-02-16T18:07:48.882Z,49.58
2019-02-16T18:10:23.431Z,49.90
2019-02-16T18:12:58.682Z,50.01
2019-02-16T18:15:34.201Z,48.93
2019-02-16T18:18:11.331Z,48.84
2019-02-16T18:20:48.831Z,49.02
2019-02-16T18:23:23.167Z,49.31
2019-02-16T18:25:57.424Z,49.41
2019-02-16T18:28:35.259Z,49.79
2019-02-16T18:31:07.754Z,49.72
2019-02-16T18:33:42.321Z,49.40
2019-02-16T18:36:17.103Z,50.03
2019-02-16T18:38:51.673Z,49.94
2019-02-16T18:41:26.178Z,49.35
2019-02-16T18:44:04.181Z,49.90
2019-02-16T18:46:35.700Z,49.74
2019-02-16T18:49:10.822Z,49.81
2019-02-16T18:51:45.235Z,50.09
2019-02-16T18:54:19.653Z,49.92
2019-02-16T18:57:06.021Z,49.67
2019-02-16T18:59:35.486Z,49.65
2019-02-16T19:02:09.795Z,49.95
2019-02-16T19:04:44.207Z,49.96
2019-02-16T19:07:18.593Z,50.08
2019-02-16T19:09:53.120Z,50.17
2019-02-16T19:12:27.617Z,50.77
2019-02-16T19:15:05.172Z,49.73
2019-02-16T19:17:39.909Z,49.72
2019-02-16T19:20:14.426Z,50.29
2019-02-16T19:22:52.640Z,51.47
2019-02-16T19:25:26.171Z,50.09
2019-02-16T19:28:01.365Z,50.42
2019-02-16T19:30:35.741Z,50.29
2019-02-16T19:33:10.563Z,50.12
2019-02-16T19:35:45.196Z,49.57
2019-02-16T19:38:20.029Z,50.17
2019-02-16T19:40:54.492Z,50.04
2019-02-16T19:43:28.885Z,50.10
2019-02-16T19:46:05.450Z,50.35
2019-02-16T19:48:39.723Z,49.91
2019-02-16T19:51:14.100Z,50.62
2019-02-16T19:53:48.502Z,49.15
2019-02-16T19:56:23.035Z,49.85
2019-02-16T19:58:57.539Z,50.60
2019-02-16T20:01:31.863Z,50.08
2019-02-16T20:04:06.542Z,49.87
2019-02-16T20:06:41.045Z,50.45
2019-02-16T20:09:15.393Z,50.75
2019-02-16T20:11:49.581Z,50.96
2019-02-16T20:14:23.923Z,52.17
2019-02-16T20:16:58.200Z,50.31
2019-02-16T20:19:38.205Z,50.51
2019-02-16T20:22:12.685Z,50.53
2019-02-16T20:24:46.900Z,50.96
2019-02-16T20:27:21.372Z,51.22
2019-02-16T20:29:55.792Z,51.71
2019-02-16T20:32:30.337Z,51.18
2019-02-16T20:35:04.509Z,51.35
2019-02-16T20:37:39.426Z,51.04
2019-02-16T20:40:16.140Z,51.73
2019-02-16T20:42:50.232Z,50.88
2019-02-16T20:45:26.447Z,51.29
2019-02-16T20:48:00.696Z,51.04
2019-02-16T20:50:35.158Z,51.39
2019-02-16T20:53:09.306Z,50.75
2019-02-16T20:55:43.522Z,51.30
2019-02-16T20:58:17.784Z,51.46
2019-02-16T21:03:54.892Z,51.08
2019-02-16T21:06:29.029Z,51.32
2019-02-16T21:09:03.382Z,51.09
2019-02-16T21:11:37.933Z,51.72
2019-02-16T21:14:12.360Z,51.54
2019-02-16T21:16:46.425Z,51.39
2019-02-16T21:19:22.313Z,51.01
2019-02-16T21:21:56.950Z,50.86
2019-02-16T21:24:31.067Z,51.10
2019-02-16T21:27:05.009Z,51.75
2019-02-16T21:29:40.976Z,51.72
2019-02-16T21:32:16.517Z,50.68
2019-02-16T21:34:51.887Z,51.50
2019-02-16T21:37:25.637Z,50.78
2019-02-16T21:40:01.091Z,52.37
2019-02-16T21:42:36.144Z,51.37
2019-02-16T21:45:09.939Z,51.59
2019-02-16T21:47:43.796Z,51.21
2019-02-16T21:50:17.586Z,51.08
2019-02-16T21:52:51.844Z,51.09
2019-02-16T21:55:25.745Z,51.09
2019-02-16T21:58:07.788Z,51.34
2019-02-16T22:00:34.222Z,50.94
2019-02-16T22:03:07.940Z,52.24
2019-02-16T22:05:41.198Z,51.52
2019-02-16T22:08:16.010Z,51.77
2019-02-16T22:10:49.639Z,52.11
2019-02-16T22:13:23.382Z,51.30
2019-02-16T22:15:58.498Z,51.90
2019-02-16T22:18:32.279Z,51.48
2019-02-16T22:21:06.292Z,52.69
2019-02-16T22:23:39.778Z,50.96
2019-02-16T22:26:13.344Z,51.58
2019-02-16T22:28:47.284Z,52.13
2019-02-16T22:31:21.162Z,51.68
2019-02-16T22:33:54.982Z,51.12
2019-02-16T22:36:28.531Z,51.58
2019-02-16T22:39:02.335Z,51.57
2019-02-16T22:41:36.063Z,51.62
2019-02-16T22:44:09.679Z,51.27
2019-02-16T22:46:44.555Z,52.04
2019-02-16T22:49:19.485Z,51.52
2019-02-16T22:51:56.858Z,51.30
2019-02-16T22:54:30.437Z,50.69
2019-02-16T22:57:04.800Z,51.12
2019-02-16T22:59:38.424Z,51.25
2019-02-16T23:02:12.830Z,51.82
2019-02-16T23:04:48.951Z,51.18
2019-02-16T23:07:25.107Z,51.24
2019-02-16T23:09:58.923Z,51.45
2019-02-16T23:12:32.539Z,51.00
2019-02-16T23:15:06.639Z,51.71
2019-02-16T23:17:41.541Z,50.77
2019-02-16T23:20:15.759Z,51.06
2019-02-16T23:22:49.410Z,51.13
2019-02-16T23:25:23.157Z,50.74
2019-02-16T23:27:58.271Z,50.62
2019-02-16T23:30:32.043Z,51.01
2019-02-16T23:33:06.545Z,50.23
2019-02-16T23:35:40.672Z,49.53
2019-02-16T23:38:15.771Z,49.47
2019-02-16T23:40:49.334Z,49.11
2019-02-16T23:43:23.424Z,48.88
2019-02-16T23:45:59.603Z,49.38
2019-02-16T23:48:34.045Z,46.92
2019-02-16T23:51:09.668Z,45.30
2019-02-16T23:53:45.529Z,41.85
2019-02-16T23:56:21.891Z,41.17
2019-02-16T23:58:57.398Z,41.93
